Time;durP1;ratioP1;P1;durP2;ratioP2;P2;SDS_P1;SDS_P2;PMS_P1;PMS_P2;Temp;Humidity;BMP_temperature;BMP_pressure;BME280_temperature;BME280_humidity;BME280_pressure;Samples;Min_cycle;Max_cycle;Signal;HPM_P1;HPM_P2
2021/08/31 00:00:21;;;;;;;11.70;8.45;;;14.60;99.90;;;;;;5050430;28;20021;-47
2021/08/31 00:02:47;;;;;;;12.30;8.40;;;14.60;99.90;;;;;;5053002;28;20029;-49
2021/08/31 00:05:13;;;;;;;12.63;7.57;;;14.60;99.90;;;;;;5062684;28;20052;-47
2021/08/31 00:07:39;;;;;;;8.32;7.15;;;14.60;99.90;;;;;;5068294;28;20021;-47
2021/08/31 00:10:06;;;;;;;19.80;8.82;;;14.50;99.90;;;;;;5069815;28;20432;-47
2021/08/31 00:12:32;;;;;;;12.05;8.20;;;14.40;99.90;;;;;;5070046;28;20577;-47
2021/08/31 00:14:58;;;;;;;11.25;8.25;;;14.40;99.90;;;;;;5069776;28;20427;-48
2021/08/31 00:17:24;;;;;;;11.73;6.80;;;14.30;99.90;;;;;;5069259;28;20043;-48
2021/08/31 00:19:49;;;;;;;11.38;7.78;;;14.30;99.90;;;;;;5070017;28;20099;-46
2021/08/31 00:22:15;;;;;;;12.25;8.20;;;14.30;99.90;;;;;;5069555;28;20029;-48
2021/08/31 00:24:41;;;;;;;11.45;7.65;;;14.20;99.90;;;;;;5069932;28;20029;-50
2021/08/31 00:27:07;;;;;;;11.85;8.15;;;14.20;99.90;;;;;;5069239;28;20069;-47
2021/08/31 00:29:32;;;;;;;10.77;8.18;;;14.20;99.90;;;;;;5069014;28;20123;-47
2021/08/31 00:31:58;;;;;;;11.52;8.45;;;14.10;99.90;;;;;;5060215;28;20644;-49
2021/08/31 00:34:23;;;;;;;12.95;8.13;;;14.00;99.90;;;;;;5061308;28;20029;-46
2021/08/31 00:36:49;;;;;;;9.68;8.07;;;14.00;99.90;;;;;;5067936;28;20410;-46
2021/08/31 00:39:15;;;;;;;14.50;9.35;;;13.90;99.90;;;;;;5069737;28;20021;-47
2021/08/31 00:41:41;;;;;;;10.20;8.48;;;13.90;99.90;;;;;;5069397;28;20103;-45
2021/08/31 00:44:19;;;;;;;13.82;8.65;;;13.90;99.90;;;;;;5069474;28;20024;-46
2021/08/31 00:46:45;;;;;;;10.70;8.30;;;13.90;99.90;;;;;;5069019;28;20405;-47
2021/08/31 00:49:10;;;;;;;15.63;8.88;;;13.90;99.90;;;;;;5069003;28;20044;-46
2021/08/31 00:51:37;;;;;;;12.30;9.57;;;13.90;99.90;;;;;;5069416;28;20024;-48
2021/08/31 00:54:03;;;;;;;11.93;8.85;;;13.90;99.90;;;;;;5069226;28;20032;-47
2021/08/31 00:56:29;;;;;;;13.02;9.10;;;14.00;99.90;;;;;;5068723;28;20032;-49
2021/08/31 00:58:54;;;;;;;11.20;8.80;;;14.00;99.90;;;;;;5067705;28;20628;-48
2021/08/31 01:01:20;;;;;;;12.63;9.50;;;14.00;99.90;;;;;;5066252;28;20059;-47
2021/08/31 01:03:45;;;;;;;12.45;9.10;;;14.00;99.90;;;;;;5047070;28;20021;-48
2021/08/31 01:06:12;;;;;;;11.70;8.48;;;14.00;99.90;;;;;;5059567;28;20585;-48
2021/08/31 01:08:38;;;;;;;11.30;8.60;;;14.00;99.90;;;;;;5066976;28;20031;-46
2021/08/31 01:11:04;;;;;;;13.20;9.25;;;14.00;99.90;;;;;;5068821;28;20025;-47
2021/08/31 01:13:32;;;;;;;11.35;8.52;;;14.10;99.90;;;;;;5068936;28;20417;-45
2021/08/31 01:15:57;;;;;;;13.50;9.23;;;14.10;99.90;;;;;;5068861;28;20058;-45
2021/08/31 01:18:24;;;;;;;12.27;8.60;;;14.00;99.90;;;;;;5068087;28;20482;-48
2021/08/31 01:20:50;;;;;;;12.93;8.82;;;14.00;99.90;;;;;;5069099;28;20111;-47
2021/08/31 01:23:16;;;;;;;10.75;8.32;;;14.00;99.90;;;;;;5067485;28;20032;-46
2021/08/31 01:25:43;;;;;;;11.95;9.05;;;13.90;99.90;;;;;;5068892;28;20036;-48
2021/08/31 01:28:35;;;;;;;14.05;8.85;;;13.90;99.90;;;;;;5039961;28;20025;-48
2021/08/31 01:31:02;;;;;;;13.20;9.23;;;13.80;99.90;;;;;;5060189;28;20025;-46
2021/08/31 01:33:32;;;;;;;15.32;9.35;;;13.80;99.90;;;;;;5040882;28;20389;-48
2021/08/31 01:36:12;;;;;;;13.60;9.98;;;13.70;99.90;;;;;;5053511;28;20034;-46
2021/08/31 01:38:37;;;;;;;14.43;8.55;;;13.70;99.90;;;;;;5037059;28;20053;-46
2021/08/31 01:41:03;;;;;;;11.30;8.57;;;13.60;99.90;;;;;;5038425;28;20089;-45
2021/08/31 01:43:28;;;;;;;11.90;9.30;;;13.60;99.90;;;;;;5035975;28;20086;-45
2021/08/31 01:45:55;;;;;;;15.55;9.55;;;13.60;99.90;;;;;;5037545;28;20029;-46
2021/08/31 01:48:21;;;;;;;13.95;10.57;;;13.60;99.90;;;;;;5036207;28;20267;-47
2021/08/31 01:50:46;;;;;;;18.85;10.48;;;13.50;99.90;;;;;;5037473;28;20115;-46
2021/08/31 01:53:12;;;;;;;17.83;10.38;;;13.50;99.90;;;;;;5037593;28;20025;-47
2021/08/31 01:55:38;;;;;;;15.90;10.02;;;13.50;99.90;;;;;;5038986;28;20032;-45
2021/08/31 01:58:03;;;;;;;22.17;10.68;;;13.60;99.90;;;;;;5036593;28;20022;-46
2021/08/31 02:00:30;;;;;;;13.00;9.43;;;13.60;99.90;;;;;;5038287;28;20450;-46
2021/08/31 02:02:58;;;;;;;13.40;9.77;;;13.60;99.90;;;;;;5036706;28;20018;-46
2021/08/31 02:05:24;;;;;;;13.02;10.20;;;13.60;99.90;;;;;;5045306;28;20494;-45
2021/08/31 02:07:50;;;;;;;12.85;9.85;;;13.60;99.90;;;;;;5036530;28;20025;-47
2021/08/31 02:10:15;;;;;;;13.38;10.07;;;13.60;99.90;;;;;;5036902;28;20347;-46
2021/08/31 02:12:41;;;;;;;11.57;9.30;;;13.60;99.90;;;;;;5039705;28;20134;-46
2021/08/31 02:15:07;;;;;;;12.57;9.93;;;13.60;99.90;;;;;;5035786;28;20028;-46
2021/08/31 02:17:32;;;;;;;11.80;9.18;;;13.60;99.90;;;;;;5035100;28;20028;-46
2021/08/31 02:19:58;;;;;;;12.73;9.90;;;13.60;99.90;;;;;;5038893;28;20390;-46
2021/08/31 02:22:23;;;;;;;17.75;9.27;;;13.60;99.90;;;;;;5038467;28;20452;-45
2021/08/31 02:24:48;;;;;;;15.73;10.45;;;13.60;99.90;;;;;;5027986;28;20187;-46
2021/08/31 02:27:14;;;;;;;14.40;9.80;;;13.60;99.90;;;;;;5027635;28;20372;-46
2021/08/31 02:29:39;;;;;;;13.55;10.38;;;13.60;99.90;;;;;;5027944;28;20079;-47
2021/08/31 02:32:05;;;;;;;15.57;10.45;;;13.60;99.90;;;;;;5028235;28;20033;-46
2021/08/31 02:34:32;;;;;;;13.10;10.32;;;13.60;99.90;;;;;;5050668;28;20112;-46
2021/08/31 02:36:57;;;;;;;11.63;8.55;;;13.60;99.90;;;;;;5065866;28;20033;-46
2021/08/31 02:39:23;;;;;;;12.32;9.75;;;13.60;99.90;;;;;;5067787;28;20104;-45
2021/08/31 02:41:48;;;;;;;14.15;9.60;;;13.60;99.90;;;;;;5065829;28;20035;-46
2021/08/31 02:44:14;;;;;;;12.32;9.52;;;13.60;99.90;;;;;;5067424;28;20033;-46
2021/08/31 02:46:39;;;;;;;11.10;9.50;;;13.60;99.90;;;;;;5067054;28;20228;-46
2021/08/31 02:49:05;;;;;;;18.42;10.07;;;13.60;99.90;;;;;;5067888;28;20104;-46
2021/08/31 02:51:30;;;;;;;12.25;9.98;;;13.60;99.90;;;;;;5068248;28;20028;-46
2021/08/31 02:53:56;;;;;;;12.32;10.07;;;13.60;99.90;;;;;;5066038;28;20032;-46
2021/08/31 02:56:21;;;;;;;14.40;9.43;;;13.60;99.90;;;;;;5068472;28;20028;-46
2021/08/31 02:58:47;;;;;;;17.77;10.18;;;13.60;99.90;;;;;;5069661;28;20433;-46
2021/08/31 03:01:29;;;;;;;15.25;9.70;;;13.60;99.90;;;;;;5040641;28;20051;-49
2021/08/31 03:03:55;;;;;;;14.10;10.13;;;13.60;99.90;;;;;;5050058;28;20474;-46
2021/08/31 03:06:20;;;;;;;14.18;10.65;;;13.70;99.90;;;;;;5047200;28;20037;-46
2021/08/31 03:08:46;;;;;;;14.00;9.90;;;13.70;99.90;;;;;;5041533;28;20105;-48
2021/08/31 03:11:12;;;;;;;14.82;11.05;;;13.70;99.90;;;;;;5038132;28;20137;-47
2021/08/31 03:13:37;;;;;;;16.98;10.18;;;13.70;99.90;;;;;;5029744;28;20029;-46
2021/08/31 03:16:03;;;;;;;13.80;10.48;;;13.70;99.90;;;;;;5031103;28;20308;-46
2021/08/31 03:18:28;;;;;;;12.77;10.35;;;13.60;99.90;;;;;;5030547;28;20032;-46
2021/08/31 03:20:54;;;;;;;16.55;11.23;;;13.60;99.90;;;;;;5031283;28;20024;-46
2021/08/31 03:23:19;;;;;;;15.25;10.02;;;13.60;99.90;;;;;;5030918;28;20030;-46
2021/08/31 03:25:45;;;;;;;14.35;10.07;;;13.50;99.90;;;;;;5031042;28;20033;-47
2021/08/31 03:28:11;;;;;;;15.90;10.82;;;13.50;99.90;;;;;;5029901;28;20029;-46
2021/08/31 03:30:36;;;;;;;17.55;11.27;;;13.40;99.90;;;;;;5030935;28;20021;-46
2021/08/31 03:33:02;;;;;;;16.05;11.70;;;13.40;99.90;;;;;;5040989;28;20552;-46
2021/08/31 03:35:28;;;;;;;15.20;11.10;;;13.30;99.90;;;;;;5061942;28;20111;-46
2021/08/31 03:37:53;;;;;;;17.02;12.00;;;13.30;99.90;;;;;;5070520;28;20028;-46
2021/08/31 03:40:19;;;;;;;17.98;12.57;;;13.30;99.90;;;;;;5070952;28;20434;-46
2021/08/31 03:42:46;;;;;;;16.27;11.90;;;13.20;99.90;;;;;;5069676;28;20054;-46
2021/08/31 03:45:12;;;;;;;17.23;12.48;;;13.20;99.90;;;;;;5070979;28;20086;-47
2021/08/31 03:47:37;;;;;;;20.13;13.43;;;13.20;99.90;;;;;;5070195;28;20032;-46
2021/08/31 03:50:03;;;;;;;22.25;14.05;;;13.20;99.90;;;;;;5070676;28;20029;-47
2021/08/31 03:52:29;;;;;;;18.17;12.88;;;13.20;99.90;;;;;;5070036;28;20028;-45
2021/08/31 03:54:54;;;;;;;19.15;12.95;;;13.20;99.90;;;;;;5070542;28;20024;-48
2021/08/31 03:57:20;;;;;;;20.75;13.45;;;13.20;99.90;;;;;;5068393;28;20028;-46
2021/08/31 03:59:45;;;;;;;20.45;13.60;;;13.20;99.90;;;;;;5068853;28;20048;-45
2021/08/31 04:02:11;;;;;;;20.15;15.05;;;13.10;99.90;;;;;;5034042;28;20026;-46
2021/08/31 04:04:36;;;;;;;22.50;15.60;;;13.10;99.90;;;;;;5056035;28;20008;-46
2021/08/31 04:07:02;;;;;;;17.52;13.70;;;13.10;99.90;;;;;;5049648;28;20028;-47
2021/08/31 04:09:27;;;;;;;26.33;15.68;;;13.10;99.90;;;;;;5050531;28;20095;-46
2021/08/31 04:11:53;;;;;;;23.77;14.65;;;13.10;99.90;;;;;;5051027;28;20040;-47
2021/08/31 04:14:19;;;;;;;24.38;15.68;;;13.10;99.90;;;;;;5051506;28;20033;-46
2021/08/31 04:16:44;;;;;;;23.92;15.95;;;13.10;99.90;;;;;;5050475;28;20028;-47
2021/08/31 04:19:09;;;;;;;22.42;15.52;;;13.10;99.90;;;;;;5050874;28;20094;-46
2021/08/31 04:21:35;;;;;;;22.88;16.05;;;13.10;99.90;;;;;;5051268;28;20025;-47
2021/08/31 04:24:01;;;;;;;23.23;16.02;;;13.10;99.90;;;;;;5049203;28;20017;-46
2021/08/31 04:26:26;;;;;;;20.00;15.43;;;13.10;99.90;;;;;;5062198;28;20025;-46
2021/08/31 04:28:52;;;;;;;22.20;15.70;;;13.10;99.90;;;;;;5071432;28;20029;-48
2021/08/31 04:31:18;;;;;;;23.15;16.42;;;13.10;99.90;;;;;;5071354;28;20103;-46
2021/08/31 04:33:44;;;;;;;23.60;16.27;;;13.10;99.90;;;;;;5069771;28;20027;-48
2021/08/31 04:36:10;;;;;;;22.52;16.13;;;13.10;99.90;;;;;;5070686;28;20059;-46
2021/08/31 04:38:35;;;;;;;26.38;17.08;;;13.10;99.90;;;;;;5070549;28;20024;-45
2021/08/31 04:41:01;;;;;;;22.00;14.60;;;13.10;99.90;;;;;;5071313;28;20020;-45
2021/08/31 04:43:27;;;;;;;24.20;17.00;;;13.10;99.90;;;;;;5063457;28;20108;-46
2021/08/31 04:45:52;;;;;;;25.05;17.00;;;13.00;99.90;;;;;;5050599;28;20028;-47
2021/08/31 04:48:18;;;;;;;30.38;19.73;;;13.10;99.90;;;;;;5049996;28;20028;-46
2021/08/31 04:50:44;;;;;;;23.90;16.20;;;13.00;99.90;;;;;;5050450;28;20060;-46
2021/08/31 04:53:09;;;;;;;30.98;19.63;;;13.00;99.90;;;;;;5050565;28;20029;-46
2021/08/31 04:55:35;;;;;;;30.25;18.60;;;13.00;99.90;;;;;;5050264;28;20032;-46
2021/08/31 04:58:01;;;;;;;26.58;18.60;;;13.10;99.90;;;;;;5048637;28;20433;-46
2021/08/31 05:00:26;;;;;;;27.02;18.30;;;13.10;99.90;;;;;;5036894;28;20025;-46
2021/08/31 05:02:52;;;;;;;30.88;20.08;;;13.10;99.90;;;;;;5045261;28;20028;-46
2021/08/31 05:05:18;;;;;;;27.77;18.73;;;13.10;99.90;;;;;;5050045;28;20400;-45
2021/08/31 05:07:43;;;;;;;27.90;19.35;;;13.10;99.90;;;;;;5049274;28;20021;-46
2021/08/31 05:10:09;;;;;;;28.75;21.38;;;13.10;99.90;;;;;;5047824;28;20020;-45
2021/08/31 05:12:35;;;;;;;27.00;19.75;;;13.10;99.90;;;;;;5049487;28;20047;-46
2021/08/31 05:15:01;;;;;;;27.65;19.17;;;13.10;99.90;;;;;;5050331;28;20032;-46
2021/08/31 05:17:26;;;;;;;27.85;18.65;;;13.10;99.90;;;;;;5050443;28;20108;-46
2021/08/31 05:19:52;;;;;;;25.10;17.38;;;13.20;99.90;;;;;;5050240;28;20024;-46
2021/08/31 05:22:17;;;;;;;29.73;17.50;;;13.20;99.90;;;;;;5051230;28;20424;-46
2021/08/31 05:24:46;;;;;;;23.30;16.15;;;13.20;99.90;;;;;;5048504;28;20021;-46
2021/08/31 05:27:12;;;;;;;24.83;17.95;;;13.20;99.90;;;;;;5030634;28;20028;-46
2021/08/31 05:29:37;;;;;;;25.90;17.38;;;13.30;99.90;;;;;;5031063;28;20393;-46
2021/08/31 05:32:03;;;;;;;23.33;17.58;;;13.30;99.90;;;;;;5030271;28;20079;-47
2021/08/31 05:34:29;;;;;;;28.27;18.42;;;13.40;99.90;;;;;;5031311;28;20025;-46
2021/08/31 05:36:54;;;;;;;21.73;17.25;;;13.40;99.90;;;;;;5030881;28;20030;-45
2021/08/31 05:39:20;;;;;;;24.25;17.25;;;13.40;99.90;;;;;;5031249;28;20486;-46
2021/08/31 05:41:45;;;;;;;25.40;18.02;;;13.40;99.90;;;;;;5031448;28;20068;-46
2021/08/31 05:44:11;;;;;;;27.88;19.42;;;13.50;99.90;;;;;;5033688;28;20097;-47
2021/08/31 05:46:36;;;;;;;29.80;18.42;;;13.50;99.90;;;;;;5030653;28;20025;-47
2021/08/31 05:49:02;;;;;;;26.30;18.27;;;13.50;99.90;;;;;;5030448;28;20033;-46
2021/08/31 05:51:27;;;;;;;24.80;16.55;;;13.50;99.90;;;;;;5029486;28;20464;-46
2021/08/31 05:53:54;;;;;;;30.00;19.60;;;13.50;99.90;;;;;;5029423;28;20029;-46
2021/08/31 05:56:19;;;;;;;31.48;19.08;;;13.50;99.90;;;;;;5029146;28;20068;-46
2021/08/31 05:58:45;;;;;;;26.50;17.25;;;13.50;99.90;;;;;;5029366;28;20013;-46
2021/08/31 06:01:11;;;;;;;29.73;18.50;;;13.50;99.90;;;;;;5038877;28;20044;-46
2021/08/31 06:03:36;;;;;;;26.10;17.20;;;13.50;99.90;;;;;;5038400;28;20036;-49
2021/08/31 06:06:02;;;;;;;25.25;17.15;;;13.50;99.90;;;;;;5037652;28;20044;-46
2021/08/31 06:08:31;;;;;;;24.63;17.88;;;13.50;99.90;;;;;;5031864;28;20017;-47
2021/08/31 06:10:57;;;;;;;24.67;17.75;;;13.50;99.90;;;;;;5034291;28;20108;-51
2021/08/31 06:13:22;;;;;;;24.02;16.58;;;13.60;99.90;;;;;;5032208;28;20128;-46
2021/08/31 06:15:48;;;;;;;24.13;16.40;;;13.70;99.90;;;;;;5034564;28;20397;-47
2021/08/31 06:18:14;;;;;;;27.98;17.85;;;13.70;99.90;;;;;;5032289;28;20482;-47
2021/08/31 06:20:39;;;;;;;26.30;18.02;;;13.70;99.90;;;;;;5033003;28;20026;-46
2021/08/31 06:23:05;;;;;;;22.83;15.48;;;13.80;99.90;;;;;;5038122;28;20032;-47
2021/08/31 06:25:31;;;;;;;23.40;17.35;;;13.80;99.90;;;;;;5042544;28;20017;-45
2021/08/31 06:27:56;;;;;;;23.35;16.63;;;13.80;99.90;;;;;;5043237;28;20379;-45
2021/08/31 06:30:22;;;;;;;24.85;15.75;;;13.80;99.90;;;;;;5039159;28;20052;-45
2021/08/31 06:32:48;;;;;;;19.00;13.75;;;13.90;99.90;;;;;;5044202;28;20029;-45
2021/08/31 06:35:13;;;;;;;29.00;17.67;;;13.90;99.90;;;;;;5047015;28;20100;-45
2021/08/31 06:37:39;;;;;;;21.90;15.57;;;14.00;99.90;;;;;;5048437;28;20429;-47
2021/08/31 06:40:05;;;;;;;21.00;15.18;;;14.00;99.90;;;;;;5049986;28;20033;-47
2021/08/31 06:42:30;;;;;;;19.92;15.02;;;14.00;99.90;;;;;;5050080;28;20072;-50
2021/08/31 06:44:56;;;;;;;21.38;15.10;;;14.00;99.90;;;;;;5050120;28;20025;-48
2021/08/31 06:47:21;;;;;;;22.65;15.30;;;14.10;99.90;;;;;;5049519;28;20056;-48
2021/08/31 06:49:47;;;;;;;20.80;14.32;;;14.20;99.90;;;;;;5050284;28;20035;-46
2021/08/31 06:52:12;;;;;;;18.27;13.80;;;14.20;99.90;;;;;;5050036;28;20445;-46
2021/08/31 06:54:38;;;;;;;20.27;14.88;;;14.30;99.90;;;;;;5049725;28;20037;-47
2021/08/31 06:57:04;;;;;;;19.67;14.23;;;14.30;99.90;;;;;;5049360;28;20142;-46
2021/08/31 06:59:29;;;;;;;21.25;14.65;;;14.40;99.90;;;;;;5049237;28;20021;-48
2021/08/31 07:01:55;;;;;;;19.25;13.80;;;14.40;99.90;;;;;;5048630;28;20074;-48
2021/08/31 07:04:20;;;;;;;22.50;15.88;;;14.50;99.90;;;;;;5048705;28;20025;-46
2021/08/31 07:06:46;;;;;;;20.15;14.18;;;14.50;99.90;;;;;;5047857;28;20036;-48
2021/08/31 07:09:11;;;;;;;22.00;14.35;;;14.50;99.90;;;;;;5034676;28;20742;-46
2021/08/31 07:11:37;;;;;;;19.40;12.60;;;14.50;99.90;;;;;;5029784;28;20109;-46
2021/08/31 07:14:02;;;;;;;24.50;16.23;;;14.50;99.90;;;;;;5029698;28;20041;-47
2021/08/31 07:16:28;;;;;;;19.77;13.68;;;14.50;99.90;;;;;;5028832;28;20033;-47
2021/08/31 07:18:54;;;;;;;20.35;14.00;;;14.70;99.90;;;;;;5029900;28;20080;-46
2021/08/31 07:21:19;;;;;;;17.98;12.57;;;14.90;99.90;;;;;;5029654;28;20025;-47
2021/08/31 07:23:45;;;;;;;18.83;13.63;;;15.00;99.90;;;;;;5029693;28;20029;-46
2021/08/31 07:26:10;;;;;;;16.55;12.32;;;15.20;99.90;;;;;;5029594;28;20021;-46
2021/08/31 07:28:36;;;;;;;24.42;13.55;;;15.30;99.90;;;;;;5029336;28;20594;-46
2021/08/31 07:31:01;;;;;;;16.08;11.57;;;15.40;99.90;;;;;;5041720;28;20028;-46
2021/08/31 07:33:27;;;;;;;16.25;11.65;;;15.40;99.90;;;;;;5048017;28;20033;-46
2021/08/31 07:35:52;;;;;;;16.55;11.18;;;15.60;99.90;;;;;;5048380;28;20396;-46
2021/08/31 07:38:18;;;;;;;13.82;9.85;;;16.00;99.90;;;;;;5036577;28;20029;-48
2021/08/31 07:40:43;;;;;;;15.70;10.68;;;16.40;99.90;;;;;;5039899;28;20028;-46
2021/08/31 07:43:09;;;;;;;16.23;10.98;;;16.50;99.90;;;;;;5041741;28;20026;-46
2021/08/31 07:45:35;;;;;;;15.95;11.02;;;16.50;99.90;;;;;;5043907;28;20037;-47
2021/08/31 07:48:01;;;;;;;17.52;10.10;;;16.50;99.90;;;;;;5039418;28;20064;-46
2021/08/31 07:50:26;;;;;;;20.25;10.40;;;16.40;99.90;;;;;;5043464;28;20427;-49
2021/08/31 07:52:52;;;;;;;16.45;11.00;;;16.50;99.90;;;;;;5040745;28;20491;-48
2021/08/31 07:55:20;;;;;;;19.02;10.95;;;16.60;99.90;;;;;;5040841;28;20105;-47
2021/08/31 07:57:45;;;;;;;17.00;11.52;;;16.70;99.90;;;;;;5042669;28;20487;-46
2021/08/31 08:00:13;;;;;;;18.73;12.10;;;16.80;99.90;;;;;;5039056;28;20028;-46
2021/08/31 08:02:39;;;;;;;15.35;9.88;;;17.00;99.90;;;;;;5041376;28;20426;-46
2021/08/31 08:05:05;;;;;;;16.33;9.52;;;17.10;99.90;;;;;;5038722;28;20032;-47
2021/08/31 08:07:31;;;;;;;13.98;9.40;;;17.40;99.90;;;;;;5051798;28;20033;-47
2021/08/31 08:09:57;;;;;;;17.75;10.18;;;17.70;99.90;;;;;;5052770;28;20536;-48
2021/08/31 08:12:23;;;;;;;15.60;10.40;;;18.00;99.90;;;;;;5052557;28;20037;-47
2021/08/31 08:14:49;;;;;;;16.70;8.98;;;18.10;99.90;;;;;;5052353;28;20032;-47
2021/08/31 08:17:19;;;;;;;10.88;8.30;;;18.50;99.90;;;;;;5051970;28;20025;-49
2021/08/31 08:19:45;;;;;;;14.50;8.77;;;18.90;99.90;;;;;;5052753;28;20032;-47
2021/08/31 08:22:11;;;;;;;10.73;8.05;;;19.40;99.90;;;;;;5052291;28;20271;-48
2021/08/31 08:24:37;;;;;;;12.10;8.13;;;19.60;99.90;;;;;;5052326;28;20403;-47
2021/08/31 08:27:03;;;;;;;10.70;8.00;;;19.90;99.90;;;;;;5051889;28;20064;-47
2021/08/31 08:29:28;;;;;;;14.75;7.15;;;20.50;99.90;;;;;;5052432;28;20024;-47
2021/08/31 08:31:55;;;;;;;11.77;6.60;;;21.40;99.90;;;;;;5052146;28;20435;-50
2021/08/31 08:34:21;;;;;;;9.18;6.45;;;21.90;99.90;;;;;;5052190;28;20553;-48
2021/08/31 08:36:47;;;;;;;10.70;7.28;;;22.10;99.90;;;;;;5051572;28;20029;-48
2021/08/31 08:39:12;;;;;;;10.38;6.90;;;22.10;99.90;;;;;;5052206;28;20035;-46
2021/08/31 08:41:38;;;;;;;9.43;6.32;;;22.50;99.90;;;;;;5052171;28;20021;-49
2021/08/31 08:44:04;;;;;;;11.88;6.45;;;23.20;99.90;;;;;;5051909;28;20048;-47
2021/08/31 08:46:29;;;;;;;10.57;7.10;;;23.60;99.90;;;;;;5051541;28;20035;-48
2021/08/31 08:48:57;;;;;;;9.02;6.57;;;23.50;99.90;;;;;;5047014;28;20493;-48
2021/08/31 08:51:23;;;;;;;8.75;6.50;;;23.10;99.90;;;;;;5047677;28;20032;-48
2021/08/31 08:53:49;;;;;;;13.05;6.40;;;23.30;99.90;;;;;;5050841;28;20539;-49
2021/08/31 08:56:14;;;;;;;8.77;5.82;;;23.20;99.90;;;;;;5050942;28;20029;-47
2021/08/31 08:58:40;;;;;;;8.35;5.75;;;23.50;99.90;;;;;;5051616;28;20044;-47
2021/08/31 09:01:08;;;;;;;6.82;5.70;;;23.70;99.90;;;;;;5051597;28;20057;-48
2021/08/31 09:03:36;;;;;;;11.90;5.70;;;24.60;99.10;;;;;;5051529;28;20083;-47
2021/08/31 09:06:14;;;;;;;9.48;5.82;;;25.80;97.00;;;;;;5050920;28;20051;-48
2021/08/31 09:08:54;;;;;;;8.77;5.57;;;26.50;95.40;;;;;;5050579;28;20040;-48
2021/08/31 09:11:26;;;;;;;8.27;5.47;;;26.70;93.80;;;;;;5051737;28;20039;-50
2021/08/31 09:14:12;;;;;;;6.80;5.35;;;26.30;93.30;;;;;;5051313;28;20487;-49
2021/08/31 09:16:38;;;;;;;10.77;6.03;;;26.50;92.30;;;;;;5048755;28;20490;-50
2021/08/31 09:19:03;;;;;;;8.13;5.95;;;26.10;91.30;;;;;;5050925;28;20023;-47
2021/08/31 09:21:30;;;;;;;9.15;5.88;;;25.90;91.50;;;;;;5050930;28;20063;-47
2021/08/31 09:23:59;;;;;;;8.73;5.50;;;26.20;91.10;;;;;;5050563;28;20028;-46
2021/08/31 09:26:43;;;;;;;6.57;5.55;;;25.50;90.60;;;;;;5049701;28;20425;-49
2021/08/31 09:29:18;;;;;;;8.68;4.90;;;25.40;91.50;;;;;;5050450;28;20435;-46
2021/08/31 09:31:47;;;;;;;7.10;5.40;;;26.30;91.20;;;;;;5050617;28;20474;-46
2021/08/31 09:34:39;;;;;;;6.93;5.10;;;27.30;88.80;;;;;;5050931;28;20394;-47
2021/08/31 09:37:34;;;;;;;9.02;5.13;;;28.40;83.80;;;;;;5048772;28;20029;-50
2021/08/31 09:40:17;;;;;;;7.15;5.07;;;29.40;78.50;;;;;;5049687;28;20017;-47
2021/08/31 09:42:59;;;;;;;6.47;4.70;;;30.20;77.10;;;;;;5049851;28;20458;-47
2021/08/31 09:45:33;;;;;;;7.70;5.68;;;31.30;69.70;;;;;;5049647;28;20074;-47
2021/08/31 09:47:59;;;;;;;7.13;4.82;;;31.60;68.70;;;;;;5046855;28;20517;-53
2021/08/31 09:50:43;;;;;;;6.05;4.82;;;31.10;67.70;;;;;;5050877;28;20104;-49
2021/08/31 09:53:10;;;;;;;7.50;5.22;;;30.60;67.30;;;;;;5050198;28;20021;-48
2021/08/31 09:55:37;;;;;;;6.53;5.07;;;30.20;67.90;;;;;;5050411;28;20020;-53
2021/08/31 09:58:24;;;;;;;6.32;4.65;;;30.50;67.20;;;;;;5049722;28;20402;-50
2021/08/31 10:00:52;;;;;;;7.50;4.85;;;30.90;66.00;;;;;;5049915;28;20544;-49
2021/08/31 10:03:18;;;;;;;8.00;5.65;;;31.50;63.10;;;;;;5050325;28;20025;-49
2021/08/31 10:05:45;;;;;;;6.65;4.82;;;31.60;61.50;;;;;;5050231;28;20032;-49
2021/08/31 10:08:11;;;;;;;7.05;5.05;;;32.20;61.70;;;;;;5043633;28;20065;-47
2021/08/31 10:10:39;;;;;;;5.70;4.65;;;32.50;59.50;;;;;;5046926;28;20036;-47
2021/08/31 10:13:09;;;;;;;6.30;4.25;;;32.00;61.70;;;;;;5049858;28;20033;-50
2021/08/31 10:15:39;;;;;;;9.50;4.80;;;32.40;59.80;;;;;;5049750;28;20024;-47
2021/08/31 10:18:05;;;;;;;6.57;4.65;;;33.40;56.80;;;;;;5028996;28;20022;-48
2021/08/31 10:20:32;;;;;;;6.30;4.40;;;33.20;54.30;;;;;;5037264;28;20021;-47
2021/08/31 10:22:58;;;;;;;6.68;4.50;;;33.20;55.50;;;;;;5037420;28;20029;-48
2021/08/31 10:25:26;;;;;;;4.40;3.92;;;32.70;54.50;;;;;;5040666;28;20016;-47
2021/08/31 10:27:54;;;;;;;5.22;4.43;;;32.70;55.20;;;;;;5039169;28;20017;-48
2021/08/31 10:30:19;;;;;;;5.60;4.22;;;33.00;56.10;;;;;;5039502;28;20643;-47
2021/08/31 10:32:47;;;;;;;4.93;4.40;;;33.20;56.00;;;;;;5043526;28;20087;-48
2021/08/31 10:38:01;;;;;;;4.78;4.22;;;34.30;52.20;;;;;;5049422;28;20116;-48
2021/08/31 10:40:32;;;;;;;5.40;4.25;;;34.70;51.10;;;;;;5049321;28;20074;-48
2021/08/31 10:42:58;;;;;;;5.32;4.35;;;34.20;51.90;;;;;;5049717;28;20336;-50
2021/08/31 10:45:54;;;;;;;5.38;4.20;;;34.20;52.30;;;;;;5049790;28;20542;-47
2021/08/31 10:48:23;;;;;;;4.57;4.13;;;34.50;51.90;;;;;;5044273;28;20073;-47
2021/08/31 10:51:10;;;;;;;5.05;4.13;;;33.90;50.80;;;;;;5048305;28;20021;-47
2021/08/31 10:53:47;;;;;;;5.38;4.25;;;34.00;51.40;;;;;;5048682;28;20017;-49
2021/08/31 10:56:25;;;;;;;5.00;4.50;;;33.00;51.70;;;;;;5048234;28;20025;-49
2021/08/31 10:58:56;;;;;;;5.25;4.35;;;32.50;54.50;;;;;;5049757;28;20062;-46
2021/08/31 11:01:24;;;;;;;5.18;4.53;;;31.30;54.70;;;;;;5048373;28;20403;-47
2021/08/31 11:03:54;;;;;;;6.10;4.53;;;30.90;57.00;;;;;;5048125;28;20082;-52
2021/08/31 11:06:28;;;;;;;4.82;4.38;;;31.00;55.70;;;;;;5049202;28;20485;-48
2021/08/31 11:09:04;;;;;;;5.60;4.85;;;31.50;55.80;;;;;;5049491;28;20025;-48
2021/08/31 11:11:30;;;;;;;4.68;4.20;;;31.70;54.90;;;;;;5049917;28;20029;-48
2021/08/31 11:13:57;;;;;;;7.13;4.43;;;32.20;55.50;;;;;;5049563;28;20044;-49
2021/08/31 11:16:25;;;;;;;7.22;3.83;;;32.40;53.90;;;;;;5050201;28;20029;-50
2021/08/31 11:18:50;;;;;;;4.78;4.25;;;32.20;54.10;;;;;;5053604;28;20025;-47
2021/08/31 11:21:16;;;;;;;6.85;4.45;;;30.80;54.90;;;;;;5053505;28;20056;-49
2021/08/31 11:23:41;;;;;;;4.88;4.10;;;30.50;56.40;;;;;;5053340;28;20021;-49
2021/08/31 11:26:06;;;;;;;5.25;4.20;;;30.70;56.90;;;;;;5046004;28;20037;-50
2021/08/31 11:28:33;;;;;;;6.28;4.55;;;31.50;55.90;;;;;;5047373;28;20375;-48
2021/08/31 11:31:06;;;;;;;9.52;4.80;;;30.90;55.90;;;;;;5051482;28;20792;-47
2021/08/31 11:33:36;;;;;;;6.18;4.25;;;29.90;56.90;;;;;;5051889;28;20707;-47
2021/08/31 11:36:10;;;;;;;5.22;4.32;;;29.50;57.60;;;;;;5051407;28;20040;-47
2021/08/31 11:38:56;;;;;;;4.53;4.00;;;29.70;57.90;;;;;;5050708;28;20024;-48
2021/08/31 11:41:26;;;;;;;4.75;4.13;;;30.00;56.20;;;;;;5051450;28;20023;-48
2021/08/31 11:44:01;;;;;;;5.68;4.15;;;30.50;56.60;;;;;;5052604;28;20371;-47
2021/08/31 11:46:32;;;;;;;4.90;3.58;;;31.00;54.90;;;;;;5051974;28;20060;-47
2021/08/31 11:49:16;;;;;;;6.15;3.70;;;31.80;54.90;;;;;;5052646;28;20025;-48
2021/08/31 11:52:11;;;;;;;6.25;3.60;;;32.00;53.60;;;;;;5051537;28;20025;-49
2021/08/31 11:54:43;;;;;;;4.63;3.67;;;31.60;54.00;;;;;;5052677;28;20025;-47
2021/08/31 11:57:10;;;;;;;7.07;4.10;;;31.00;53.70;;;;;;5052478;28;20082;-47
2021/08/31 11:59:49;;;;;;;13.10;4.47;;;30.50;55.40;;;;;;5053080;28;20029;-47
2021/08/31 12:02:25;;;;;;;4.50;3.63;;;29.40;58.40;;;;;;5052914;28;20017;-46
2021/08/31 12:04:57;;;;;;;4.57;3.47;;;29.30;59.10;;;;;;5052739;28;20021;-49
2021/08/31 12:07:41;;;;;;;4.47;3.75;;;29.90;55.60;;;;;;5051295;28;20031;-47
2021/08/31 12:10:09;;;;;;;4.28;3.88;;;30.40;57.20;;;;;;5051248;28;20072;-47
2021/08/31 12:12:37;;;;;;;6.70;3.92;;;30.70;57.50;;;;;;5047550;28;20025;-50
2021/08/31 12:15:04;;;;;;;3.90;3.50;;;30.60;55.60;;;;;;5051276;28;20027;-48
2021/08/31 12:17:35;;;;;;;3.85;3.47;;;30.00;55.20;;;;;;5038534;28;20033;-48
2021/08/31 12:20:14;;;;;;;7.38;4.15;;;28.80;58.30;;;;;;5031508;28;20215;-47
2021/08/31 12:22:42;;;;;;;5.13;4.43;;;28.00;59.70;;;;;;5031290;28;20179;-46
2021/08/31 12:25:09;;;;;;;3.80;3.40;;;28.10;62.90;;;;;;5031484;28;20042;-47
2021/08/31 12:27:49;;;;;;;4.95;3.63;;;28.40;61.60;;;;;;5028069;28;20435;-47
2021/08/31 12:30:20;;;;;;;5.00;3.65;;;28.80;59.00;;;;;;5031110;28;20388;-47
2021/08/31 12:32:57;;;;;;;4.93;3.72;;;29.10;61.00;;;;;;5030964;28;20029;-47
2021/08/31 12:35:44;;;;;;;3.65;3.33;;;29.30;59.40;;;;;;5040483;28;20029;-50
2021/08/31 12:38:17;;;;;;;5.07;3.42;;;29.00;58.40;;;;;;5050137;28;20029;-47
2021/08/31 12:41:11;;;;;;;5.40;3.58;;;28.90;58.30;;;;;;5050808;28;20150;-47